sensor_id;sensor_type;location;lat;lon;timestamp;temperature;humidity
26270;DHT22;15937;50.612;6.656;2023-02-19T00:03:39;9.80;99.90
26270;DHT22;15937;50.612;6.656;2023-02-19T00:07:40;9.90;99.90
26270;DHT22;15937;50.612;6.656;2023-02-19T00:11:43;9.90;99.90
26270;DHT22;15937;50.612;6.656;2023-02-19T00:15:46;9.90;99.90
26270;DHT22;15937;50.612;6.656;2023-02-19T00:19:48;10.00;99.90
26270;DHT22;15937;50.612;6.656;2023-02-19T00:23:57;9.90;99.90
26270;DHT22;15937;50.612;6.656;2023-02-19T00:27:58;9.80;99.90
26270;DHT22;15937;50.612;6.656;2023-02-19T00:32:00;9.70;99.90
26270;DHT22;15937;50.612;6.656;2023-02-19T00:36:03;9.70;99.90
26270;DHT22;15937;50.612;6.656;2023-02-19T00:40:05;9.70;99.90
26270;DHT22;15937;50.612;6.656;2023-02-19T00:44:07;9.70;99.90
26270;DHT22;15937;50.612;6.656;2023-02-19T00:48:08;9.70;99.90
26270;DHT22;15937;50.612;6.656;2023-02-19T00:52:10;9.70;99.90
26270;DHT22;15937;50.612;6.656;2023-02-19T00:56:12;9.70;99.90
26270;DHT22;15937;50.612;6.656;2023-02-19T01:00:13;9.70;99.90
26270;DHT22;15937;50.612;6.656;2023-02-19T01:04:15;9.70;99.90
26270;DHT22;15937;50.612;6.656;2023-02-19T01:08:17;9.80;99.90
26270;DHT22;15937;50.612;6.656;2023-02-19T01:12:19;9.80;99.90
26270;DHT22;15937;50.612;6.656;2023-02-19T01:16:21;9.80;99.90
26270;DHT22;15937;50.612;6.656;2023-02-19T01:20:25;9.90;99.90
26270;DHT22;15937;50.612;6.656;2023-02-19T01:24:27;9.90;99.90
26270;DHT22;15937;50.612;6.656;2023-02-19T01:28:28;9.90;99.90
26270;DHT22;15937;50.612;6.656;2023-02-19T01:32:30;9.90;99.90
26270;DHT22;15937;50.612;6.656;2023-02-19T01:36:32;9.80;99.90
26270;DHT22;15937;50.612;6.656;2023-02-19T01:40:34;9.90;99.90
26270;DHT22;15937;50.612;6.656;2023-02-19T01:48:37;9.90;99.90
26270;DHT22;15937;50.612;6.656;2023-02-19T01:52:39;9.90;99.90
26270;DHT22;15937;50.612;6.656;2023-02-19T01:56:41;9.90;99.90
26270;DHT22;15937;50.612;6.656;2023-02-19T02:00:44;9.90;99.90
26270;DHT22;15937;50.612;6.656;2023-02-19T02:04:46;10.00;99.90
26270;DHT22;15937;50.612;6.656;2023-02-19T02:08:52;10.00;99.90
26270;DHT22;15937;50.612;6.656;2023-02-19T02:13:14;10.00;99.90
26270;DHT22;15937;50.612;6.656;2023-02-19T02:17:19;10.00;99.90
26270;DHT22;15937;50.612;6.656;2023-02-19T02:29:55;9.60;99.90
26270;DHT22;15937;50.612;6.656;2023-02-19T02:34:11;9.60;99.90
26270;DHT22;15937;50.612;6.656;2023-02-19T02:38:15;9.60;99.90
26270;DHT22;15937;50.612;6.656;2023-02-19T02:42:17;9.50;99.90
26270;DHT22;15937;50.612;6.656;2023-02-19T02:46:29;9.50;99.90
26270;DHT22;15937;50.612;6.656;2023-02-19T02:50:34;9.50;99.90
26270;DHT22;15937;50.612;6.656;2023-02-19T02:54:37;9.50;99.90
26270;DHT22;15937;50.612;6.656;2023-02-19T02:59:15;9.50;99.90
26270;DHT22;15937;50.612;6.656;2023-02-19T03:03:18;9.50;99.90
26270;DHT22;15937;50.612;6.656;2023-02-19T03:07:21;9.60;99.90
26270;DHT22;15937;50.612;6.656;2023-02-19T03:11:22;9.60;99.90
26270;DHT22;15937;50.612;6.656;2023-02-19T03:15:44;9.60;99.90
26270;DHT22;15937;50.612;6.656;2023-02-19T03:20:07;9.60;99.90
26270;DHT22;15937;50.612;6.656;2023-02-19T03:24:10;9.60;99.90
26270;DHT22;15937;50.612;6.656;2023-02-19T03:28:32;9.60;99.90
26270;DHT22;15937;50.612;6.656;2023-02-19T03:32:54;9.60;99.90
26270;DHT22;15937;50.612;6.656;2023-02-19T03:37:04;9.60;99.90
26270;DHT22;15937;50.612;6.656;2023-02-19T03:41:09;9.60;99.90
26270;DHT22;15937;50.612;6.656;2023-02-19T03:45:23;9.60;99.90
26270;DHT22;15937;50.612;6.656;2023-02-19T03:49:47;9.60;99.90
26270;DHT22;15937;50.612;6.656;2023-02-19T04:06:25;9.60;99.90
26270;DHT22;15937;50.612;6.656;2023-02-19T04:10:27;9.50;99.90
26270;DHT22;15937;50.612;6.656;2023-02-19T04:14:56;9.60;99.90
26270;DHT22;15937;50.612;6.656;2023-02-19T04:19:25;9.60;99.90
26270;DHT22;15937;50.612;6.656;2023-02-19T04:23:51;9.60;99.90
26270;DHT22;15937;50.612;6.656;2023-02-19T04:28:17;9.50;99.90
26270;DHT22;15937;50.612;6.656;2023-02-19T04:32:43;9.50;99.90
26270;DHT22;15937;50.612;6.656;2023-02-19T04:37:08;9.50;99.90
26270;DHT22;15937;50.612;6.656;2023-02-19T06:08:56;9.10;99.90
26270;DHT22;15937;50.612;6.656;2023-02-19T06:12:58;9.00;99.90
26270;DHT22;15937;50.612;6.656;2023-02-19T06:17:00;9.00;99.90
26270;DHT22;15937;50.612;6.656;2023-02-19T06:21:03;9.00;99.90
26270;DHT22;15937;50.612;6.656;2023-02-19T06:25:05;8.90;99.90
26270;DHT22;15937;50.612;6.656;2023-02-19T06:29:08;8.90;99.90
26270;DHT22;15937;50.612;6.656;2023-02-19T06:33:09;8.90;99.90
26270;DHT22;15937;50.612;6.656;2023-02-19T06:37:11;8.90;99.90
26270;DHT22;15937;50.612;6.656;2023-02-19T06:41:13;9.00;99.90
26270;DHT22;15937;50.612;6.656;2023-02-19T06:45:15;9.00;99.90
26270;DHT22;15937;50.612;6.656;2023-02-19T06:49:19;9.00;99.90
26270;DHT22;15937;50.612;6.656;2023-02-19T06:53:22;9.00;99.90
26270;DHT22;15937;50.612;6.656;2023-02-19T06:57:24;9.00;99.90
26270;DHT22;15937;50.612;6.656;2023-02-19T07:01:26;9.00;99.90
26270;DHT22;15937;50.612;6.656;2023-02-19T07:05:28;9.00;99.90
26270;DHT22;15937;50.612;6.656;2023-02-19T07:09:30;8.90;99.90
26270;DHT22;15937;50.612;6.656;2023-02-19T07:13:32;8.90;99.90
26270;DHT22;15937;50.612;6.656;2023-02-19T07:17:33;9.00;99.90
26270;DHT22;15937;50.612;6.656;2023-02-19T07:21:35;8.90;99.90
26270;DHT22;15937;50.612;6.656;2023-02-19T07:25:38;8.90;99.90
26270;DHT22;15937;50.612;6.656;2023-02-19T07:29:40;9.00;99.90
26270;DHT22;15937;50.612;6.656;2023-02-19T07:33:45;9.10;99.90
26270;DHT22;15937;50.612;6.656;2023-02-19T07:37:46;9.10;99.90
26270;DHT22;15937;50.612;6.656;2023-02-19T07:41:48;9.20;99.90
26270;DHT22;15937;50.612;6.656;2023-02-19T07:45:50;9.10;99.90
26270;DHT22;15937;50.612;6.656;2023-02-19T07:49:52;9.10;99.90
26270;DHT22;15937;50.612;6.656;2023-02-19T07:53:57;9.10;99.90
26270;DHT22;15937;50.612;6.656;2023-02-19T07:58:13;9.10;99.90
26270;DHT22;15937;50.612;6.656;2023-02-19T08:02:15;9.00;99.90
26270;DHT22;15937;50.612;6.656;2023-02-19T08:06:36;9.00;99.90
26270;DHT22;15937;50.612;6.656;2023-02-19T08:10:38;9.10;99.90
26270;DHT22;15937;50.612;6.656;2023-02-19T08:14:58;9.10;99.90
26270;DHT22;15937;50.612;6.656;2023-02-19T08:19:00;9.10;99.90
26270;DHT22;15937;50.612;6.656;2023-02-19T08:23:01;9.10;99.90
26270;DHT22;15937;50.612;6.656;2023-02-19T08:27:03;9.10;99.90
26270;DHT22;15937;50.612;6.656;2023-02-19T08:31:05;9.10;99.90
26270;DHT22;15937;50.612;6.656;2023-02-19T08:35:07;9.10;99.90
26270;DHT22;15937;50.612;6.656;2023-02-19T08:39:09;9.10;99.90
26270;DHT22;15937;50.612;6.656;2023-02-19T08:43:11;9.20;99.90
26270;DHT22;15937;50.612;6.656;2023-02-19T08:47:13;9.10;99.90
26270;DHT22;15937;50.612;6.656;2023-02-19T08:51:15;9.10;99.90
26270;DHT22;15937;50.612;6.656;2023-02-19T08:55:17;9.10;99.90
26270;DHT22;15937;50.612;6.656;2023-02-19T08:59:19;9.10;99.90
26270;DHT22;15937;50.612;6.656;2023-02-19T09:03:21;9.20;99.90
26270;DHT22;15937;50.612;6.656;2023-02-19T09:07:22;9.20;99.90
26270;DHT22;15937;50.612;6.656;2023-02-19T09:11:24;9.30;99.90
26270;DHT22;15937;50.612;6.656;2023-02-19T09:15:26;9.30;99.90
26270;DHT22;15937;50.612;6.656;2023-02-19T09:19:30;9.40;99.90
26270;DHT22;15937;50.612;6.656;2023-02-19T09:23:33;9.40;99.90
26270;DHT22;15937;50.612;6.656;2023-02-19T09:27:35;9.40;99.90
26270;DHT22;15937;50.612;6.656;2023-02-19T09:31:37;9.50;99.90
26270;DHT22;15937;50.612;6.656;2023-02-19T09:35:39;9.60;99.90
26270;DHT22;15937;50.612;6.656;2023-02-19T09:39:41;9.50;99.90
26270;DHT22;15937;50.612;6.656;2023-02-19T09:43:42;9.70;99.90
26270;DHT22;15937;50.612;6.656;2023-02-19T09:47:44;9.70;99.90
26270;DHT22;15937;50.612;6.656;2023-02-19T09:51:48;9.90;99.90
26270;DHT22;15937;50.612;6.656;2023-02-19T09:55:51;9.60;99.90
26270;DHT22;15937;50.612;6.656;2023-02-19T10:00:11;9.70;99.90
26270;DHT22;15937;50.612;6.656;2023-02-19T10:04:14;9.50;99.90
26270;DHT22;15937;50.612;6.656;2023-02-19T10:08:17;9.40;99.90
26270;DHT22;15937;50.612;6.656;2023-02-19T10:12:22;9.60;99.90
26270;DHT22;15937;50.612;6.656;2023-02-19T10:16:25;9.50;99.90
26270;DHT22;15937;50.612;6.656;2023-02-19T10:20:28;9.40;99.90
26270;DHT22;15937;50.612;6.656;2023-02-19T10:24:30;9.40;99.90
26270;DHT22;15937;50.612;6.656;2023-02-19T10:28:33;9.50;99.90
26270;DHT22;15937;50.612;6.656;2023-02-19T10:32:35;9.50;99.90
26270;DHT22;15937;50.612;6.656;2023-02-19T10:36:40;9.60;99.90
26270;DHT22;15937;50.612;6.656;2023-02-19T10:40:43;9.60;99.90
26270;DHT22;15937;50.612;6.656;2023-02-19T10:44:50;9.40;99.90
26270;DHT22;15937;50.612;6.656;2023-02-19T10:48:54;9.30;99.90
26270;DHT22;15937;50.612;6.656;2023-02-19T10:52:58;9.40;99.90
26270;DHT22;15937;50.612;6.656;2023-02-19T11:01:22;9.20;99.90
26270;DHT22;15937;50.612;6.656;2023-02-19T11:05:23;9.30;99.90
26270;DHT22;15937;50.612;6.656;2023-02-19T11:09:59;9.20;99.90
26270;DHT22;15937;50.612;6.656;2023-02-19T11:13:54;9.30;99.90
26270;DHT22;15937;50.612;6.656;2023-02-19T11:18:03;9.20;99.90
26270;DHT22;15937;50.612;6.656;2023-02-19T11:26:32;9.10;99.90
26270;DHT22;15937;50.612;6.656;2023-02-19T11:30:39;9.00;99.90
26270;DHT22;15937;50.612;6.656;2023-02-19T11:34:41;9.00;99.90
26270;DHT22;15937;50.612;6.656;2023-02-19T11:38:43;9.00;99.90
26270;DHT22;15937;50.612;6.656;2023-02-19T11:42:49;8.90;99.90
26270;DHT22;15937;50.612;6.656;2023-02-19T11:59:32;9.50;99.90
26270;DHT22;15937;50.612;6.656;2023-02-19T12:11:53;9.60;99.90
26270;DHT22;15937;50.612;6.656;2023-02-19T12:20:13;9.40;99.90
26270;DHT22;15937;50.612;6.656;2023-02-19T12:28:49;9.50;99.90
26270;DHT22;15937;50.612;6.656;2023-02-19T12:41:31;9.50;99.90
26270;DHT22;15937;50.612;6.656;2023-02-19T12:45:56;9.40;99.90
26270;DHT22;15937;50.612;6.656;2023-02-19T12:50:04;9.20;99.90
26270;DHT22;15937;50.612;6.656;2023-02-19T12:54:31;9.30;99.90
26270;DHT22;15937;50.612;6.656;2023-02-19T13:07:32;9.60;99.90
26270;DHT22;15937;50.612;6.656;2023-02-19T13:11:39;9.60;99.90
26270;DHT22;15937;50.612;6.656;2023-02-19T13:15:44;9.80;99.90
26270;DHT22;15937;50.612;6.656;2023-02-19T13:19:49;9.80;99.90
26270;DHT22;15937;50.612;6.656;2023-02-19T13:23:52;9.80;99.90
26270;DHT22;15937;50.612;6.656;2023-02-19T13:28:02;9.60;99.90
26270;DHT22;15937;50.612;6.656;2023-02-19T13:36:13;9.50;99.90
26270;DHT22;15937;50.612;6.656;2023-02-19T13:40:26;9.50;99.90
26270;DHT22;15937;50.612;6.656;2023-02-19T13:44:31;9.50;99.90
26270;DHT22;15937;50.612;6.656;2023-02-19T13:48:34;9.40;99.90
26270;DHT22;15937;50.612;6.656;2023-02-19T13:52:36;9.40;99.90
26270;DHT22;15937;50.612;6.656;2023-02-19T13:56:39;9.30;99.90
26270;DHT22;15937;50.612;6.656;2023-02-19T14:00:48;9.30;99.90
26270;DHT22;15937;50.612;6.656;2023-02-19T14:04:54;9.20;99.90
26270;DHT22;15937;50.612;6.656;2023-02-19T14:08:57;9.40;99.90
26270;DHT22;15937;50.612;6.656;2023-02-19T14:13:00;9.30;99.90
26270;DHT22;15937;50.612;6.656;2023-02-19T14:21:14;9.60;99.90
26270;DHT22;15937;50.612;6.656;2023-02-19T14:29:30;9.50;99.90
26270;DHT22;15937;50.612;6.656;2023-02-19T14:33:33;9.40;99.90
26270;DHT22;15937;50.612;6.656;2023-02-19T14:37:36;9.40;99.90
26270;DHT22;15937;50.612;6.656;2023-02-19T14:41:38;9.30;99.90
26270;DHT22;15937;50.612;6.656;2023-02-19T14:45:41;9.30;99.90
26270;DHT22;15937;50.612;6.656;2023-02-19T14:49:53;9.40;99.90
26270;DHT22;15937;50.612;6.656;2023-02-19T14:53:56;9.30;99.90
26270;DHT22;15937;50.612;6.656;2023-02-19T14:58:09;9.30;99.90
26270;DHT22;15937;50.612;6.656;2023-02-19T15:02:13;9.30;99.90
26270;DHT22;15937;50.612;6.656;2023-02-19T15:06:16;9.30;99.90
26270;DHT22;15937;50.612;6.656;2023-02-19T15:10:20;9.20;99.90
26270;DHT22;15937;50.612;6.656;2023-02-19T15:14:22;9.30;99.90
26270;DHT22;15937;50.612;6.656;2023-02-19T15:18:25;9.40;99.90
26270;DHT22;15937;50.612;6.656;2023-02-19T15:22:28;9.30;99.90
26270;DHT22;15937;50.612;6.656;2023-02-19T15:26:36;9.30;99.90
26270;DHT22;15937;50.612;6.656;2023-02-19T15:30:38;9.20;99.90
26270;DHT22;15937;50.612;6.656;2023-02-19T15:34:40;9.30;99.90
26270;DHT22;15937;50.612;6.656;2023-02-19T15:38:42;9.20;99.90
26270;DHT22;15937;50.612;6.656;2023-02-19T15:42:45;9.20;99.90
26270;DHT22;15937;50.612;6.656;2023-02-19T15:46:47;9.20;99.90
26270;DHT22;15937;50.612;6.656;2023-02-19T15:50:54;9.20;99.90
26270;DHT22;15937;50.612;6.656;2023-02-19T15:55:11;9.10;99.90
26270;DHT22;15937;50.612;6.656;2023-02-19T16:00:02;8.90;99.90
26270;DHT22;15937;50.612;6.656;2023-02-19T16:03:43;8.90;99.90
26270;DHT22;15937;50.612;6.656;2023-02-19T16:07:45;8.80;99.90
26270;DHT22;15937;50.612;6.656;2023-02-19T16:11:48;8.80;99.90
26270;DHT22;15937;50.612;6.656;2023-02-19T16:16:02;8.70;99.90
26270;DHT22;15937;50.612;6.656;2023-02-19T16:20:04;8.70;99.90
26270;DHT22;15937;50.612;6.656;2023-02-19T16:24:13;8.70;99.90
26270;DHT22;15937;50.612;6.656;2023-02-19T16:28:20;8.70;99.90
26270;DHT22;15937;50.612;6.656;2023-02-19T16:32:22;8.80;99.90
26270;DHT22;15937;50.612;6.656;2023-02-19T16:36:37;8.80;99.90
26270;DHT22;15937;50.612;6.656;2023-02-19T16:44:54;8.70;99.90
26270;DHT22;15937;50.612;6.656;2023-02-19T16:48:56;8.40;99.90
26270;DHT22;15937;50.612;6.656;2023-02-19T16:52:58;8.50;99.90
26270;DHT22;15937;50.612;6.656;2023-02-19T16:57:03;8.40;99.90
26270;DHT22;15937;50.612;6.656;2023-02-19T17:01:05;8.20;99.90
26270;DHT22;15937;50.612;6.656;2023-02-19T17:05:07;8.20;99.90
26270;DHT22;15937;50.612;6.656;2023-02-19T17:09:09;8.20;99.90
26270;DHT22;15937;50.612;6.656;2023-02-19T17:13:11;8.10;99.90
26270;DHT22;15937;50.612;6.656;2023-02-19T17:17:12;8.20;99.90
26270;DHT22;15937;50.612;6.656;2023-02-19T17:21:21;8.20;99.90
26270;DHT22;15937;50.612;6.656;2023-02-19T17:25:23;8.10;99.90
26270;DHT22;15937;50.612;6.656;2023-02-19T17:29:24;8.10;99.90
26270;DHT22;15937;50.612;6.656;2023-02-19T17:33:28;8.10;99.90
26270;DHT22;15937;50.612;6.656;2023-02-19T17:37:30;8.10;99.90
26270;DHT22;15937;50.612;6.656;2023-02-19T17:41:32;8.10;99.90
26270;DHT22;15937;50.612;6.656;2023-02-19T17:45:33;8.10;99.90
26270;DHT22;15937;50.612;6.656;2023-02-19T17:49:35;8.10;99.90
26270;DHT22;15937;50.612;6.656;2023-02-19T17:53:37;8.10;99.90
26270;DHT22;15937;50.612;6.656;2023-02-19T17:57:38;8.10;99.90
26270;DHT22;15937;50.612;6.656;2023-02-19T18:01:41;8.10;99.90
26270;DHT22;15937;50.612;6.656;2023-02-19T18:05:42;8.10;99.90
26270;DHT22;15937;50.612;6.656;2023-02-19T18:09:44;8.00;99.90
26270;DHT22;15937;50.612;6.656;2023-02-19T18:13:46;8.00;99.90
26270;DHT22;15937;50.612;6.656;2023-02-19T18:17:48;8.00;99.90
26270;DHT22;15937;50.612;6.656;2023-02-19T18:21:50;8.00;99.90
26270;DHT22;15937;50.612;6.656;2023-02-19T18:25:52;8.00;99.90
26270;DHT22;15937;50.612;6.656;2023-02-19T18:29:54;7.90;99.90
26270;DHT22;15937;50.612;6.656;2023-02-19T18:33:55;7.90;99.90
26270;DHT22;15937;50.612;6.656;2023-02-19T18:37:57;7.80;99.90
26270;DHT22;15937;50.612;6.656;2023-02-19T18:41:59;7.80;99.90
26270;DHT22;15937;50.612;6.656;2023-02-19T18:46:02;7.70;99.90
26270;DHT22;15937;50.612;6.656;2023-02-19T18:50:04;7.70;99.90
26270;DHT22;15937;50.612;6.656;2023-02-19T18:54:09;7.70;99.90
26270;DHT22;15937;50.612;6.656;2023-02-19T18:58:10;7.70;99.90
26270;DHT22;15937;50.612;6.656;2023-02-19T19:02:12;7.70;99.90
26270;DHT22;15937;50.612;6.656;2023-02-19T19:06:15;7.60;99.90
26270;DHT22;15937;50.612;6.656;2023-02-19T19:10:17;7.70;99.90
26270;DHT22;15937;50.612;6.656;2023-02-19T19:14:18;7.60;99.90
26270;DHT22;15937;50.612;6.656;2023-02-19T19:18:20;7.70;99.90
26270;DHT22;15937;50.612;6.656;2023-02-19T19:22:22;7.70;99.90
26270;DHT22;15937;50.612;6.656;2023-02-19T19:26:25;7.60;99.90
26270;DHT22;15937;50.612;6.656;2023-02-19T19:30:27;7.70;99.90
26270;DHT22;15937;50.612;6.656;2023-02-19T19:34:28;7.60;99.90
26270;DHT22;15937;50.612;6.656;2023-02-19T19:38:30;7.60;99.90
26270;DHT22;15937;50.612;6.656;2023-02-19T19:42:32;7.50;99.90
26270;DHT22;15937;50.612;6.656;2023-02-19T19:46:33;7.60;99.90
26270;DHT22;15937;50.612;6.656;2023-02-19T19:50:35;7.50;99.90
26270;DHT22;15937;50.612;6.656;2023-02-19T19:54:39;7.50;99.90
26270;DHT22;15937;50.612;6.656;2023-02-19T19:58:40;7.50;99.90
26270;DHT22;15937;50.612;6.656;2023-02-19T20:02:45;7.60;99.90
26270;DHT22;15937;50.612;6.656;2023-02-19T20:06:47;7.60;99.90
26270;DHT22;15937;50.612;6.656;2023-02-19T20:10:49;7.60;99.90
26270;DHT22;15937;50.612;6.656;2023-02-19T20:14:50;7.60;99.90
26270;DHT22;15937;50.612;6.656;2023-02-19T20:18:52;7.70;99.90
26270;DHT22;15937;50.612;6.656;2023-02-19T20:22:54;7.60;99.90
26270;DHT22;15937;50.612;6.656;2023-02-19T20:26:56;7.60;99.90
26270;DHT22;15937;50.612;6.656;2023-02-19T20:30:59;7.60;99.90
26270;DHT22;15937;50.612;6.656;2023-02-19T20:35:01;7.60;99.90
26270;DHT22;15937;50.612;6.656;2023-02-19T20:39:02;7.60;99.90
26270;DHT22;15937;50.612;6.656;2023-02-19T20:43:04;7.50;99.90
26270;DHT22;15937;50.612;6.656;2023-02-19T20:47:06;7.50;99.90
26270;DHT22;15937;50.612;6.656;2023-02-19T20:51:07;7.40;99.90
26270;DHT22;15937;50.612;6.656;2023-02-19T20:55:09;7.50;99.90
26270;DHT22;15937;50.612;6.656;2023-02-19T20:59:12;7.50;99.90
26270;DHT22;15937;50.612;6.656;2023-02-19T21:03:14;7.30;99.90
26270;DHT22;15937;50.612;6.656;2023-02-19T21:07:16;7.40;99.90
26270;DHT22;15937;50.612;6.656;2023-02-19T21:11:17;7.30;99.90
26270;DHT22;15937;50.612;6.656;2023-02-19T21:15:19;7.40;99.90
26270;DHT22;15937;50.612;6.656;2023-02-19T21:19:21;7.40;99.90
26270;DHT22;15937;50.612;6.656;2023-02-19T21:23:23;7.40;99.90
26270;DHT22;15937;50.612;6.656;2023-02-19T21:27:24;7.40;99.90
26270;DHT22;15937;50.612;6.656;2023-02-19T21:31:34;7.40;99.90
26270;DHT22;15937;50.612;6.656;2023-02-19T21:35:36;7.30;99.90
26270;DHT22;15937;50.612;6.656;2023-02-19T21:39:37;7.30;99.90
26270;DHT22;15937;50.612;6.656;2023-02-19T21:43:39;7.40;99.90
26270;DHT22;15937;50.612;6.656;2023-02-19T21:47:41;7.40;99.90
26270;DHT22;15937;50.612;6.656;2023-02-19T21:51:43;7.30;99.90
26270;DHT22;15937;50.612;6.656;2023-02-19T21:55:45;7.30;99.90
26270;DHT22;15937;50.612;6.656;2023-02-19T21:59:59;7.40;99.90
26270;DHT22;15937;50.612;6.656;2023-02-19T22:04:00;7.20;99.90
26270;DHT22;15937;50.612;6.656;2023-02-19T22:08:04;7.10;99.90
26270;DHT22;15937;50.612;6.656;2023-02-19T22:12:05;7.20;99.90
26270;DHT22;15937;50.612;6.656;2023-02-19T22:16:08;7.20;99.90
26270;DHT22;15937;50.612;6.656;2023-02-19T22:20:10;7.20;99.90
26270;DHT22;15937;50.612;6.656;2023-02-19T22:24:13;7.10;99.90
26270;DHT22;15937;50.612;6.656;2023-02-19T22:28:15;7.00;99.90
26270;DHT22;15937;50.612;6.656;2023-02-19T22:32:16;7.00;99.90
26270;DHT22;15937;50.612;6.656;2023-02-19T22:36:20;6.90;99.90
26270;DHT22;15937;50.612;6.656;2023-02-19T22:40:21;6.70;99.90
26270;DHT22;15937;50.612;6.656;2023-02-19T22:44:23;6.70;99.90
26270;DHT22;15937;50.612;6.656;2023-02-19T22:48:25;6.60;99.90
26270;DHT22;15937;50.612;6.656;2023-02-19T22:52:33;6.50;99.90
26270;DHT22;15937;50.612;6.656;2023-02-19T22:56:35;6.50;99.90
26270;DHT22;15937;50.612;6.656;2023-02-19T23:00:36;6.50;99.90
26270;DHT22;15937;50.612;6.656;2023-02-19T23:04:38;6.50;99.90
26270;DHT22;15937;50.612;6.656;2023-02-19T23:08:40;6.20;99.90
26270;DHT22;15937;50.612;6.656;2023-02-19T23:12:43;6.10;99.90
26270;DHT22;15937;50.612;6.656;2023-02-19T23:16:44;6.20;99.90
26270;DHT22;15937;50.612;6.656;2023-02-19T23:20:46;6.10;99.90
26270;DHT22;15937;50.612;6.656;2023-02-19T23:24:48;6.10;99.90
26270;DHT22;15937;50.612;6.656;2023-02-19T23:28:49;6.00;99.90
26270;DHT22;15937;50.612;6.656;2023-02-19T23:32:51;6.00;99.90
26270;DHT22;15937;50.612;6.656;2023-02-19T23:36:53;5.80;99.90
26270;DHT22;15937;50.612;6.656;2023-02-19T23:40:55;5.80;99.90
26270;DHT22;15937;50.612;6.656;2023-02-19T23:44:57;5.80;99.90
26270;DHT22;15937;50.612;6.656;2023-02-19T23:48:58;5.80;99.90
26270;DHT22;15937;50.612;6.656;2023-02-19T23:53:00;5.80;99.90
26270;DHT22;15937;50.612;6.656;2023-02-19T23:57:02;5.70;99.90
